Cherrygrove, North Carolina
Current Conditions -  °F | °C
As of 3:35 AM on Saturday 20 Dec 2014 (Local Time) from KSIF Reporting Station
Clear Clear  
Wind Chill: 34°   Ceiling: Unl
Heat Index: 34°   Visibility: 10mi
Dew Point: 28°   Wind: 3mph
Humidity: 78%   Direction: 40°NE
Pressure: 30.23"   Gusts: NA
Location:  36.3355°N, 79.6561°W
Report Text: KSIF 200835Z AUTO 04003KT 10SM CLR 01/M02 A3023 RMK AO2 T00101025
Loading
Personal Weather Stations






























Interactive Weather Map New forecast layout! Learn more

10-Day Weather Forecast

Advertisements
Track Severe Weather on mobile